createdAt,value
2023-10-27T00:01:06.739Z,99024.72
2023-10-27T00:03:34.781Z,99020.88
2023-10-27T00:06:02.775Z,99017.63
2023-10-27T00:08:31.610Z,99022.44
2023-10-27T00:11:05.398Z,99027.00
2023-10-27T00:13:33.534Z,99019.75
2023-10-27T00:16:01.526Z,99014.19
2023-10-27T00:18:29.546Z,99014.38
2023-10-27T00:20:57.524Z,99012.25
2023-10-27T00:23:25.512Z,99010.28
2023-10-27T00:25:53.921Z,99014.53
2023-10-27T00:28:23.318Z,99015.34
2023-10-27T00:30:51.261Z,99019.16
2023-10-27T00:33:19.250Z,99021.22
2023-10-27T00:35:47.179Z,99021.22
2023-10-27T00:38:15.086Z,99011.84
2023-10-27T00:40:43.020Z,99016.47
2023-10-27T00:43:11.049Z,99014.38
2023-10-27T00:45:40.581Z,99020.56
2023-10-27T00:48:08.668Z,99007.38
2023-10-27T00:50:36.713Z,99006.88
2023-10-27T00:53:05.352Z,99000.31
2023-10-27T00:55:34.457Z,99000.09
2023-10-27T00:58:02.664Z,99010.88
2023-10-27T01:00:30.895Z,99012.75
2023-10-27T01:03:00.217Z,99010.88
2023-10-27T01:05:28.189Z,99009.97
2023-10-27T01:07:56.443Z,99008.66
2023-10-27T01:10:24.582Z,99009.97
2023-10-27T01:12:52.645Z,99008.34
2023-10-27T01:15:21.232Z,99012.41
2023-10-27T01:17:49.394Z,99009.16
2023-10-27T01:20:19.024Z,99012.41
2023-10-27T01:22:49.281Z,99012.66
2023-10-27T01:25:18.090Z,99012.56
2023-10-27T01:27:46.027Z,99009.13
2023-10-27T01:30:14.629Z,99008.63
2023-10-27T01:32:44.645Z,99011.56
2023-10-27T01:35:13.092Z,99005.69
2023-10-27T01:37:41.169Z,99003.00
2023-10-27T01:40:12.052Z,98998.94
2023-10-27T01:42:40.051Z,99001.38
2023-10-27T01:45:09.345Z,99000.81
2023-10-27T01:47:37.350Z,99001.72
2023-10-27T01:50:05.728Z,98997.63
2023-10-27T01:52:33.666Z,99003.09
2023-10-27T01:55:01.615Z,98989.09
2023-10-27T01:57:30.961Z,98995.44
2023-10-27T01:59:58.900Z,99002.13
2023-10-27T02:02:26.878Z,99001.78
2023-10-27T02:04:54.846Z,98994.78
2023-10-27T02:07:25.890Z,98995.28
2023-10-27T02:09:54.070Z,98993.41
2023-10-27T02:12:22.040Z,98989.09
2023-10-27T02:14:51.337Z,98995.75
2023-10-27T02:17:19.243Z,98988.50
2023-10-27T02:19:48.503Z,98990.72
2023-10-27T02:22:16.585Z,98996.16
2023-10-27T02:24:44.901Z,98987.53
2023-10-27T02:27:13.100Z,98990.22
2023-10-27T02:29:41.040Z,98982.09
2023-10-27T02:32:10.385Z,98985.34
2023-10-27T02:34:38.299Z,98983.13
2023-10-27T02:37:06.682Z,98979.81
2023-10-27T02:39:34.652Z,98976.88
2023-10-27T02:42:02.614Z,98977.44
2023-10-27T02:44:30.536Z,98981.19
2023-10-27T02:46:58.492Z,98987.94
2023-10-27T02:49:27.890Z,98976.94
2023-10-27T02:51:55.971Z,98992.34
2023-10-27T02:54:23.917Z,98989.09
2023-10-27T02:56:51.890Z,98980.69
2023-10-27T02:59:19.818Z,98980.69
2023-10-27T03:01:47.949Z,98976.06
2023-10-27T03:04:15.970Z,98973.44
2023-10-27T03:06:45.386Z,98970.50
2023-10-27T03:09:13.346Z,98976.38
2023-10-27T03:11:41.254Z,98969.63
2023-10-27T03:14:09.299Z,98964.81
2023-10-27T03:16:37.370Z,98966.13
2023-10-27T03:19:06.228Z,98964.81
2023-10-27T03:21:34.378Z,98965.31
2023-10-27T03:24:03.857Z,98963.66
2023-10-27T03:26:31.772Z,98962.81
2023-10-27T03:28:59.993Z,98961.69
2023-10-27T03:31:28.118Z,98963.31
2023-10-27T03:33:56.045Z,98962.00
2023-10-27T03:36:24.171Z,98957.00
2023-10-27T03:38:52.095Z,98964.00
2023-10-27T03:41:21.510Z,98967.50
2023-10-27T03:43:49.748Z,98962.94
2023-10-27T03:46:17.791Z,98958.72
2023-10-27T03:48:45.883Z,98964.31
2023-10-27T03:51:13.850Z,98965.47
2023-10-27T03:53:41.806Z,98960.09
2023-10-27T03:56:09.756Z,98962.03
2023-10-27T03:58:47.790Z,98957.72
2023-10-27T04:01:16.809Z,98960.00
2023-10-27T04:03:44.935Z,98958.94
2023-10-27T04:06:13.405Z,98962.13
2023-10-27T04:08:41.350Z,98957.31
2023-10-27T04:11:09.308Z,98958.94
2023-10-27T04:13:38.552Z,98957.41
2023-10-27T04:16:07.033Z,98954.38
2023-10-27T04:18:35.098Z,98958.13
2023-10-27T04:21:04.272Z,98948.69
2023-10-27T04:23:32.432Z,98947.34
2023-10-27T04:26:00.759Z,98952.53
2023-10-27T04:28:28.951Z,98949.47
2023-10-27T04:30:58.336Z,98954.31
2023-10-27T04:33:26.588Z,98946.22
2023-10-27T04:35:54.628Z,98948.34
2023-10-27T04:38:22.533Z,98940.34
2023-10-27T04:40:52.845Z,98945.41
2023-10-27T04:43:22.529Z,98944.34
2023-10-27T04:45:51.030Z,98948.91
2023-10-27T04:48:20.323Z,98940.03
2023-10-27T04:50:54.254Z,98942.72
2023-10-27T04:53:22.225Z,98940.03
2023-10-27T04:55:50.222Z,98936.28
2023-10-27T04:58:18.773Z,98946.47
2023-10-27T05:00:46.722Z,98937.59
2023-10-27T05:03:14.674Z,98939.22
2023-10-27T05:05:44.016Z,98938.72
2023-10-27T05:08:14.694Z,98940.09
2023-10-27T05:10:43.383Z,98937.41
2023-10-27T05:13:11.499Z,98937.91
2023-10-27T05:15:39.664Z,98939.53
2023-10-27T05:18:07.939Z,98943.78
2023-10-27T05:20:39.478Z,98941.16
2023-10-27T05:23:11.463Z,98935.31
2023-10-27T05:25:39.469Z,98944.44
2023-10-27T05:28:08.802Z,98936.78
2023-10-27T05:30:38.589Z,98946.66
2023-10-27T05:33:09.066Z,98937.41
2023-10-27T05:35:37.098Z,98933.50
2023-10-27T05:38:05.074Z,98941.31
2023-10-27T05:40:37.175Z,98928.72
2023-10-27T05:43:05.174Z,98942.16
2023-10-27T05:45:33.164Z,98943.78
2023-10-27T05:48:01.179Z,98940.09
2023-10-27T05:50:29.325Z,98933.09
2023-10-27T05:52:57.424Z,98938.72
2023-10-27T05:55:26.723Z,98932.22
2023-10-27T05:57:56.013Z,98927.56
2023-10-27T06:00:24.177Z,98938.00
2023-10-27T06:02:54.314Z,98945.31
2023-10-27T06:06:14.619Z,98944.78
2023-10-27T06:08:45.249Z,98932.69
2023-10-27T06:11:13.300Z,98942.47
2023-10-27T06:13:42.615Z,98940.84
2023-10-27T06:16:10.659Z,98936.78
2023-10-27T06:18:39.344Z,98948.09
2023-10-27T06:21:07.282Z,98947.19
2023-10-27T06:23:36.940Z,98946.88
2023-10-27T06:26:05.844Z,98947.34
2023-10-27T06:28:33.837Z,98952.94
2023-10-27T06:31:06.504Z,98959.03
2023-10-27T06:33:35.892Z,98952.44
2023-10-27T06:36:03.853Z,98945.72
2023-10-27T06:38:32.112Z,98950.38
2023-10-27T06:41:00.064Z,98950.88
2023-10-27T06:43:31.236Z,98953.09
2023-10-27T06:45:59.189Z,98948.53
2023-10-27T06:48:28.644Z,98947.47
2023-10-27T06:51:03.075Z,98957.31
2023-10-27T06:53:31.181Z,98954.81
2023-10-27T06:55:59.224Z,98954.31
2023-10-27T07:01:16.353Z,98952.94
2023-10-27T07:03:48.297Z,98957.00
2023-10-27T07:06:24.005Z,98957.00
2023-10-27T07:08:59.538Z,98965.97
2023-10-27T07:11:36.407Z,98968.00
2023-10-27T07:14:06.742Z,98978.00
2023-10-27T07:16:36.851Z,98976.38
2023-10-27T07:19:08.788Z,98978.25
2023-10-27T07:21:38.395Z,98976.72
2023-10-27T07:24:07.347Z,98975.31
2023-10-27T07:26:35.276Z,98973.69
2023-10-27T07:29:16.432Z,98971.00
2023-10-27T07:31:46.597Z,98980.13
2023-10-27T07:34:15.967Z,98976.94
2023-10-27T07:36:49.564Z,98978.09
2023-10-27T07:39:19.585Z,98980.28
2023-10-27T07:41:47.644Z,98975.97
2023-10-27T07:44:17.652Z,98977.69
2023-10-27T07:46:46.666Z,98985.50
2023-10-27T07:49:24.906Z,98984.69
2023-10-27T07:51:52.971Z,98978.50
2023-10-27T07:54:23.529Z,98974.25
2023-10-27T07:56:51.494Z,98978.75
2023-10-27T07:59:23.712Z,98977.44
2023-10-27T08:01:56.744Z,98971.00
2023-10-27T08:04:28.331Z,98979.81
2023-10-27T08:06:56.506Z,98979.16
2023-10-27T08:09:25.513Z,98976.72
2023-10-27T08:11:54.720Z,98978.81
2023-10-27T08:14:22.717Z,98985.00
2023-10-27T08:16:53.073Z,98991.22
2023-10-27T08:19:21.190Z,98989.00
2023-10-27T08:21:50.640Z,98975.66
2023-10-27T08:24:18.648Z,98986.41
2023-10-27T08:26:48.918Z,98991.22
2023-10-27T08:29:18.830Z,98997.63
2023-10-27T08:31:54.211Z,98989.09
2023-10-27T08:34:28.423Z,98986.47
2023-10-27T08:37:02.370Z,98992.44
2023-10-27T08:39:32.051Z,98996.66
2023-10-27T08:42:11.852Z,98991.22
2023-10-27T08:44:41.469Z,98996.59
2023-10-27T08:47:16.282Z,98995.44
2023-10-27T08:50:10.446Z,98995.69
2023-10-27T08:52:40.919Z,98990.72
2023-10-27T08:55:10.845Z,98996.00
2023-10-27T08:57:59.535Z,99005.09
2023-10-27T09:00:27.864Z,99001.31
2023-10-27T09:02:58.690Z,98998.69
2023-10-27T09:05:29.933Z,99003.25
2023-10-27T09:07:59.807Z,99002.94
2023-10-27T09:10:28.119Z,99007.38
2023-10-27T09:13:00.897Z,99007.84
2023-10-27T09:15:43.183Z,99009.97
2023-10-27T09:18:11.261Z,99008.34
2023-10-27T09:20:50.993Z,99003.50
2023-10-27T09:23:21.856Z,99010.47
2023-10-27T09:25:49.966Z,99007.28
2023-10-27T09:28:30.786Z,99011.91
2023-10-27T09:30:59.361Z,99007.94
2023-10-27T09:33:29.683Z,99013.22
2023-10-27T09:35:59.575Z,99008.50
2023-10-27T09:38:31.327Z,99005.78
2023-10-27T09:41:08.357Z,99011.69
2023-10-27T09:43:40.320Z,99006.09
2023-10-27T09:46:10.059Z,99007.81
2023-10-27T09:48:41.004Z,99009.88
2023-10-27T09:51:13.078Z,99003.66
2023-10-27T09:53:42.923Z,99006.44
2023-10-27T09:56:15.826Z,99005.88
2023-10-27T09:58:43.014Z,99001.31
2023-10-27T10:01:18.404Z,98990.88
2023-10-27T10:03:46.704Z,98984.00
2023-10-27T10:06:19.296Z,98975.88
2023-10-27T10:09:15.747Z,98978.63
2023-10-27T10:12:00.713Z,98974.88
2023-10-27T10:14:51.027Z,98985.16
2023-10-27T10:17:39.931Z,98971.63
2023-10-27T10:20:10.513Z,98977.34
2023-10-27T10:22:57.187Z,98978.63
2023-10-27T10:25:34.393Z,98975.88
2023-10-27T10:28:28.521Z,98977.41
2023-10-27T10:31:29.819Z,98985.03
2023-10-27T10:34:13.025Z,98976.94
2023-10-27T10:36:42.798Z,98978.63
2023-10-27T10:39:12.512Z,98977.56
2023-10-27T10:42:05.020Z,98985.97
2023-10-27T10:44:33.678Z,98987.59
2023-10-27T10:47:18.805Z,98985.97
2023-10-27T10:49:46.800Z,98976.59
2023-10-27T10:52:22.190Z,98980.34
2023-10-27T10:54:53.255Z,98971.72
2023-10-27T10:57:23.089Z,98967.69
2023-10-27T10:59:57.485Z,98977.66
2023-10-27T11:02:25.512Z,98971.72
2023-10-27T11:04:58.826Z,98964.13
2023-10-27T11:07:29.923Z,98971.72
2023-10-27T11:10:22.552Z,98972.81
2023-10-27T11:12:53.925Z,98971.75
2023-10-27T11:15:48.314Z,98977.13
2023-10-27T11:18:18.520Z,98973.09
2023-10-27T11:20:46.963Z,98973.88
2023-10-27T11:23:16.598Z,98970.72
2023-10-27T11:25:45.741Z,98969.06
2023-10-27T11:28:31.205Z,98966.97
2023-10-27T11:31:11.725Z,98959.72
2023-10-27T11:34:09.792Z,98963.78
2023-10-27T11:37:04.902Z,98962.66
2023-10-27T11:39:51.010Z,98963.78
2023-10-27T11:42:19.017Z,98971.28
2023-10-27T11:44:48.492Z,98963.59
2023-10-27T11:47:16.487Z,98968.66
2023-10-27T11:49:51.445Z,98968.97
2023-10-27T11:52:23.813Z,98965.03
2023-10-27T11:54:51.885Z,98958.59
2023-10-27T11:57:19.942Z,98964.16
2023-10-27T11:59:55.154Z,98958.47
2023-10-27T12:02:26.955Z,98954.75
2023-10-27T12:04:56.303Z,98951.22
2023-10-27T12:07:26.225Z,98957.41
2023-10-27T12:10:00.067Z,98960.41
2023-10-27T12:12:28.020Z,98948.91
2023-10-27T12:15:02.538Z,98943.50
2023-10-27T12:17:38.197Z,98945.56
2023-10-27T12:20:42.848Z,98948.25
2023-10-27T12:23:13.473Z,98946.13
2023-10-27T12:25:44.178Z,98936.16
2023-10-27T12:28:14.833Z,98938.88
2023-10-27T12:30:45.953Z,98941.25
2023-10-27T12:33:22.562Z,98935.91
2023-10-27T12:36:29.661Z,98946.13
2023-10-27T12:39:35.254Z,98957.22
2023-10-27T12:42:06.669Z,98952.66
2023-10-27T12:44:34.620Z,98947.75
2023-10-27T12:47:05.285Z,98947.28
2023-10-27T12:49:36.281Z,98952.16
2023-10-27T12:52:10.639Z,98943.19
2023-10-27T12:55:02.739Z,98954.28
2023-10-27T12:57:36.449Z,98951.06
2023-10-27T13:00:12.220Z,98945.94
2023-10-27T13:02:41.601Z,98934.38
2023-10-27T13:05:13.744Z,98953.22
2023-10-27T13:07:42.267Z,98951.03
2023-10-27T13:10:10.688Z,98941.88
2023-10-27T13:12:41.076Z,98943.81
2023-10-27T13:15:17.284Z,98945.94
2023-10-27T13:17:50.414Z,98958.53
2023-10-27T13:20:21.414Z,98955.81
2023-10-27T13:22:53.735Z,98959.03
2023-10-27T13:25:29.020Z,98956.16
2023-10-27T13:28:31.864Z,98953.47
2023-10-27T13:31:07.678Z,98955.09
2023-10-27T13:34:05.860Z,98944.75
2023-10-27T13:36:41.858Z,98952.03
2023-10-27T13:39:41.236Z,98959.75
2023-10-27T13:42:56.140Z,98959.53
2023-10-27T13:45:26.040Z,98946.91
2023-10-27T13:48:04.438Z,98954.47
2023-10-27T13:50:37.675Z,98956.00
2023-10-27T13:53:10.181Z,98954.72
2023-10-27T13:55:49.156Z,98950.88
2023-10-27T13:58:20.088Z,98952.28
2023-10-27T14:00:48.206Z,98956.84
2023-10-27T14:03:16.337Z,98951.13
2023-10-27T14:05:50.483Z,98954.63
2023-10-27T14:08:21.885Z,98964.41
2023-10-27T14:10:53.689Z,98962.53
2023-10-27T14:13:25.904Z,98959.09
2023-10-27T14:15:55.026Z,98960.16
2023-10-27T14:18:23.380Z,98961.47
2023-10-27T14:20:54.346Z,98962.69
2023-10-27T14:23:22.402Z,98970.59
2023-10-27T14:25:50.438Z,98961.63
2023-10-27T14:28:21.221Z,98969.88
2023-10-27T14:30:49.927Z,98968.59
2023-10-27T14:33:18.008Z,98961.59
2023-10-27T14:35:48.565Z,98962.41
2023-10-27T14:38:18.171Z,98958.09
2023-10-27T14:40:52.341Z,98960.78
2023-10-27T14:43:20.433Z,98956.69
2023-10-27T14:46:00.258Z,98958.25
2023-10-27T14:48:32.223Z,98959.06
2023-10-27T14:51:05.287Z,98963.63
2023-10-27T14:53:40.056Z,98962.81
2023-10-27T14:56:49.358Z,98974.06
2023-10-27T14:59:17.527Z,98973.59
2023-10-27T15:01:46.319Z,98981.06
2023-10-27T15:04:16.476Z,98989.72
2023-10-27T15:06:50.241Z,98988.84
2023-10-27T15:09:22.195Z,98990.19
2023-10-27T15:11:50.285Z,98985.06
2023-10-27T15:14:18.342Z,98991.53
2023-10-27T15:16:47.948Z,98987.47
2023-10-27T15:19:18.473Z,98988.75
2023-10-27T15:21:49.868Z,98982.00
2023-10-27T15:24:19.297Z,98989.34
2023-10-27T15:26:48.920Z,98982.34
2023-10-27T15:29:19.808Z,98996.25
2023-10-27T15:32:25.330Z,98998.94
2023-10-27T15:35:29.266Z,98990.88
2023-10-27T15:38:20.452Z,99002.59
2023-10-27T15:41:00.586Z,98993.97
2023-10-27T15:43:31.428Z,98996.66
2023-10-27T15:46:04.913Z,98994.47
2023-10-27T15:48:33.529Z,98998.53
2023-10-27T15:51:05.810Z,98995.28
2023-10-27T15:53:49.609Z,98993.97
2023-10-27T15:56:27.814Z,98998.22
2023-10-27T15:58:59.708Z,99004.72
2023-10-27T16:01:27.796Z,99008.50
2023-10-27T16:03:58.778Z,99006.88
2023-10-27T16:06:33.414Z,99000.50
2023-10-27T16:09:04.876Z,99004.25
2023-10-27T16:11:48.063Z,99011.75
2023-10-27T16:14:17.576Z,99007.69
2023-10-27T16:16:51.774Z,99011.28
2023-10-27T16:19:20.067Z,99010.06
2023-10-27T16:21:48.098Z,98996.09
2023-10-27T16:24:16.183Z,98995.75
2023-10-27T16:26:47.510Z,98994.72
2023-10-27T16:29:17.229Z,98992.19
2023-10-27T16:31:46.067Z,98994.63
2023-10-27T16:34:14.292Z,98992.66
2023-10-27T16:36:42.499Z,98988.69
2023-10-27T16:39:13.242Z,98994.22
2023-10-27T16:41:41.266Z,98998.63
2023-10-27T16:44:10.634Z,98997.22
2023-10-27T16:46:39.618Z,98992.66
2023-10-27T16:49:07.676Z,99001.31
2023-10-27T16:51:39.742Z,98999.03
2023-10-27T16:54:29.601Z,99004.41
2023-10-27T16:56:59.204Z,99000.97
2023-10-27T16:59:39.049Z,99009.00
2023-10-27T17:02:11.114Z,99016.25
2023-10-27T17:04:45.275Z,99019.25
2023-10-27T17:07:16.442Z,99006.50
2023-10-27T17:09:52.937Z,99015.84
2023-10-27T17:12:35.320Z,99016.97
2023-10-27T17:15:05.353Z,99012.25
2023-10-27T17:17:36.596Z,99008.25
2023-10-27T17:20:16.192Z,99010.47
2023-10-27T17:22:56.854Z,99005.53
2023-10-27T17:25:25.054Z,99007.66
2023-10-27T17:27:53.666Z,99000.31
2023-10-27T17:30:23.341Z,98998.53
2023-10-27T17:32:51.789Z,98999.03
2023-10-27T17:35:20.946Z,99002.78
2023-10-27T17:37:49.374Z,98998.94
2023-10-27T17:40:20.024Z,98999.03
2023-10-27T17:42:48.895Z,98997.16
2023-10-27T17:45:19.469Z,98997.06
2023-10-27T17:47:51.089Z,98999.50
2023-10-27T17:50:19.337Z,98999.84
2023-10-27T17:52:50.145Z,99001.78
2023-10-27T17:55:18.249Z,99004.72
2023-10-27T17:57:53.359Z,98999.34
2023-10-27T18:00:25.552Z,98998.03
2023-10-27T18:02:56.065Z,98996.16
2023-10-27T18:05:26.153Z,99002.28
2023-10-27T18:08:36.116Z,98996.91
2023-10-27T18:11:07.686Z,98990.72
2023-10-27T18:13:40.788Z,98989.66
2023-10-27T18:16:09.452Z,98992.34
2023-10-27T18:18:41.785Z,98996.34
2023-10-27T18:21:12.428Z,98994.72
2023-10-27T18:23:40.867Z,99000.97
2023-10-27T18:26:19.890Z,99003.91
2023-10-27T18:28:49.321Z,99002.59
2023-10-27T18:31:18.192Z,99008.25
2023-10-27T18:33:50.058Z,99010.25
2023-10-27T18:36:24.664Z,99011.44
2023-10-27T18:38:55.185Z,99017.28
2023-10-27T18:41:23.718Z,99019.41
2023-10-27T18:43:56.981Z,99023.16
2023-10-27T18:46:27.619Z,99029.03
2023-10-27T18:48:57.124Z,99029.34
2023-10-27T18:51:25.183Z,99024.78
2023-10-27T18:53:59.140Z,99032.28
2023-10-27T18:56:34.783Z,99040.91
2023-10-27T18:59:20.730Z,99032.84
2023-10-27T19:01:49.489Z,99032.28
2023-10-27T19:04:19.158Z,99037.09
2023-10-27T19:06:49.555Z,99039.84
2023-10-27T19:09:20.520Z,99039.59
2023-10-27T19:11:48.492Z,99041.41
2023-10-27T19:14:17.668Z,99042.47
2023-10-27T19:16:49.309Z,99039.19
2023-10-27T19:19:25.570Z,99030.09
2023-10-27T19:21:56.176Z,99031.72
2023-10-27T19:24:26.304Z,99036.84
2023-10-27T19:26:56.592Z,99024.78
2023-10-27T19:29:24.553Z,99032.28
2023-10-27T19:31:52.622Z,99037.31
2023-10-27T19:34:25.103Z,99028.09
2023-10-27T19:36:53.171Z,99036.75
2023-10-27T19:39:21.440Z,99035.47
2023-10-27T19:42:00.070Z,99037.31
2023-10-27T19:44:30.789Z,99044.34
2023-10-27T19:46:58.827Z,99037.00
2023-10-27T19:49:32.908Z,99028.09
2023-10-27T19:52:01.273Z,99042.25
2023-10-27T19:54:29.425Z,99037.94
2023-10-27T19:57:01.458Z,99042.84
2023-10-27T19:59:31.113Z,99041.22
2023-10-27T20:02:03.277Z,99037.47
2023-10-27T20:04:39.871Z,99046.81
2023-10-27T20:07:15.372Z,99049.88
2023-10-27T20:09:44.059Z,99044.81
2023-10-27T20:12:18.561Z,99042.84
2023-10-27T20:14:46.581Z,99046.13
2023-10-27T20:17:26.817Z,99044.72
2023-10-27T20:23:08.485Z,99050.09
2023-10-27T20:25:47.113Z,99051.34
2023-10-27T20:28:25.710Z,99062.09
2023-10-27T20:31:02.332Z,99059.56
2023-10-27T20:33:57.305Z,99058.81
2023-10-27T20:36:30.794Z,99049.88
2023-10-27T20:39:05.001Z,99060.63
2023-10-27T20:41:34.805Z,99061.75
2023-10-27T20:44:06.132Z,99054.75
2023-10-27T20:46:35.725Z,99070.31
2023-10-27T20:49:03.785Z,99066.47
2023-10-27T20:51:35.640Z,99075.59
2023-10-27T20:54:27.675Z,99063.19
2023-10-27T20:57:11.614Z,99060.75
2023-10-27T20:59:39.692Z,99063.34
2023-10-27T21:02:12.595Z,99066.63
2023-10-27T21:04:43.656Z,99068.97
2023-10-27T21:07:19.278Z,99070.03
2023-10-27T21:09:50.433Z,99077.59
2023-10-27T21:12:24.167Z,99073.38
2023-10-27T21:14:52.241Z,99073.78
2023-10-27T21:17:20.311Z,99079.03
2023-10-27T21:19:54.919Z,99077.16
2023-10-27T21:22:24.419Z,99076.94
2023-10-27T21:24:53.742Z,99084.41
2023-10-27T21:27:24.676Z,99088.66
2023-10-27T21:29:53.017Z,99090.28
2023-10-27T21:32:21.304Z,99077.41
2023-10-27T21:34:54.038Z,99090.03
2023-10-27T21:37:23.732Z,99087.09
2023-10-27T21:39:55.410Z,99088.97
2023-10-27T21:42:23.604Z,99093.66
2023-10-27T21:44:54.647Z,99088.41
2023-10-27T21:47:24.415Z,99096.72
2023-10-27T21:49:53.124Z,99086.09
2023-10-27T21:52:21.292Z,99097.78
2023-10-27T21:54:54.049Z,99099.16
2023-10-27T21:57:23.392Z,99101.72
2023-10-27T21:59:51.715Z,99102.22
2023-10-27T22:02:20.465Z,99105.03
2023-10-27T22:04:48.611Z,99100.47
2023-10-27T22:07:18.886Z,99098.72
2023-10-27T22:09:47.431Z,99105.03
2023-10-27T22:12:19.440Z,99112.28
2023-10-27T22:14:48.808Z,99107.34
2023-10-27T22:17:16.911Z,99114.94
2023-10-27T22:19:45.077Z,99111.66
2023-10-27T22:22:16.345Z,99108.41
2023-10-27T22:24:44.336Z,99114.28
2023-10-27T22:27:12.342Z,99110.59
2023-10-27T22:29:44.907Z,99107.84
2023-10-27T22:32:14.552Z,99120.78
2023-10-27T22:34:44.544Z,99120.22
2023-10-27T22:37:14.761Z,99112.72
2023-10-27T22:39:42.738Z,99108.97
2023-10-27T22:42:10.982Z,99111.22
2023-10-27T22:44:39.068Z,99105.03
2023-10-27T22:47:07.538Z,99106.28
2023-10-27T22:49:38.843Z,99108.41
2023-10-27T22:52:07.112Z,99106.03
2023-10-27T22:54:35.077Z,99104.09
2023-10-27T22:57:04.907Z,99105.72
2023-10-27T22:59:32.971Z,99107.72
2023-10-27T23:02:01.021Z,99104.47
2023-10-27T23:04:29.059Z,99104.09
2023-10-27T23:07:00.971Z,99097.34
2023-10-27T23:09:28.928Z,99092.66
2023-10-27T23:11:56.901Z,99094.66
2023-10-27T23:14:24.984Z,99102.72
2023-10-27T23:16:56.185Z,99100.53
2023-10-27T23:19:24.698Z,99101.78
2023-10-27T23:21:53.883Z,99101.34
2023-10-27T23:24:25.107Z,99106.59
2023-10-27T23:26:56.534Z,99105.41
2023-10-27T23:29:24.492Z,99103.78
2023-10-27T23:31:52.560Z,99111.28
2023-10-27T23:34:20.556Z,99106.78
2023-10-27T23:36:50.444Z,99104.59
2023-10-27T23:39:18.716Z,99104.34
2023-10-27T23:41:48.587Z,99101.78
2023-10-27T23:44:19.607Z,99101.47
2023-10-27T23:46:47.674Z,99104.16
2023-10-27T23:49:16.425Z,99108.00
2023-10-27T23:51:45.652Z,99100.97
2023-10-27T23:54:18.069Z,99107.53
2023-10-27T23:56:47.465Z,99100.41
2023-10-27T23:59:16.399Z,99098.97
